Pincher Creek, Canada
Current Conditions -  °F | °C
As of 7:00 PM on Saturday 22 Nov 2014 (Local Time) from CZPC Reporting Station
Overcast Overcast  
Wind Chill: 23°   Ceiling: 16000
Heat Index: 36°   Visibility: 9mi
Dew Point: 18°   Wind: 26mph
Humidity: 48%   Direction: 260°W
Pressure: 29.48"   Gusts: 32mph
Location:  49.49°N, 113.95°W
Report Text: CZPC 230200Z AUTO 26023G28KT 9SM FEW130 OVC160 02/M08 A2948 RMK SLP011
Loading
Personal Weather Stations






























Interactive Weather Map New forecast layout! Learn more

10-Day Weather Forecast

Advertisements
Track Severe Weather on mobile